Search for airport 
image banner adimage banner adimage banner ad
image banner ad

PA63 - Wpxi-Tv Evergreen Road

Located in Pittsburgh, United States

ICAO - PA63, IATA -

Data provided by Airmate  

General information

Coordinates: N40°29'43" W80°0'38"
Elevation is 1106 feet MSL.
Magnetic variation is +19° East
View others Airports in Pennsylvania

Operational data

Special qualification required
Current time UTC:
Current local time:
Weather at : KAGC - Allegheny County ( 17 km )
METAR: KAGC 150653Z 32005KT 10SM CLR 16/13 A2989 RMK AO2 SLP118 T01560128
TAF: KAGC 150536Z 1506/1606 33006KT P6SM SCT060 FM150900 02005KT 3SM BR SKC TEMPO 1510/1512 1SM BR SCT002 FM151200 33008KT P6SM SCT060 FM151600 33010G18KT P6SM SCT040 FM160000 32008KT P6SM SCT150
View NOTAMs / SUP AIP / TFR affecting this airport [VIEW]
Communications frequencies: [VIEW]

Runways:

RWY identifierQFULength (ft)Width (ft)SurfaceLDA (ft)
18196°300060GRAVE
3616°300060GRAVE

Airport contact information

Address: Pittsburgh United States

Satellite view of PA63